createdAt,value
2023-04-04T00:02:31.409Z,95057.22
2023-04-04T00:07:34.164Z,95048.00
2023-04-04T00:12:37.045Z,95016.97
2023-04-04T00:17:39.583Z,94989.28
2023-04-04T00:22:42.645Z,94991.22
2023-04-04T00:27:45.156Z,95016.38
2023-04-04T00:32:47.551Z,94990.72
2023-04-04T00:37:49.918Z,95010.66
2023-04-04T00:42:52.987Z,94996.44
2023-04-04T00:47:56.613Z,95009.38
2023-04-04T00:52:59.205Z,94985.75
2023-04-04T00:58:02.164Z,94986.34
2023-04-04T01:03:06.220Z,95010.50
2023-04-04T01:08:08.952Z,94968.91
2023-04-04T01:13:11.917Z,94944.13
2023-04-04T01:18:19.596Z,95005.69
2023-04-04T01:23:28.910Z,94943.00
2023-04-04T01:28:32.284Z,94964.41
2023-04-04T01:33:45.653Z,94961.56
2023-04-04T01:39:18.702Z,94993.28
2023-04-04T01:44:21.843Z,94989.97
2023-04-04T01:49:24.495Z,94962.63
2023-04-04T01:54:28.578Z,94963.16
2023-04-04T01:59:31.060Z,94981.63
2023-04-04T02:04:34.230Z,94972.84
2023-04-04T02:09:37.026Z,94952.38
2023-04-04T02:14:39.373Z,94973.06
2023-04-04T02:19:41.740Z,94964.25
2023-04-04T02:24:44.775Z,94986.44
2023-04-04T02:29:47.080Z,94979.34
2023-04-04T02:34:49.479Z,94996.28
2023-04-04T02:39:52.043Z,94974.59
2023-04-04T02:44:54.500Z,94991.28
2023-04-04T02:49:57.216Z,95004.44
2023-04-04T02:55:01.554Z,95019.09
2023-04-04T03:00:10.215Z,95008.00
2023-04-04T03:05:13.120Z,94988.88
2023-04-04T03:10:16.932Z,94979.19
2023-04-04T03:15:19.803Z,94990.25
2023-04-04T03:20:22.443Z,94948.22
2023-04-04T03:25:25.104Z,94971.34
2023-04-04T03:30:27.395Z,94983.84
2023-04-04T03:35:30.932Z,94969.78
2023-04-04T03:40:33.512Z,94964.19
2023-04-04T03:45:39.490Z,95007.34
2023-04-04T03:50:46.093Z,94988.22
2023-04-04T03:55:48.508Z,94976.72
2023-04-04T04:00:50.883Z,94958.97
2023-04-04T04:05:53.836Z,94981.66
2023-04-04T04:10:56.107Z,94972.59
2023-04-04T04:15:58.669Z,94961.41
2023-04-04T04:21:03.615Z,94939.00
2023-04-04T04:26:07.579Z,94965.06
2023-04-04T04:31:11.041Z,94981.25
2023-04-04T04:36:21.003Z,94948.31
2023-04-04T04:41:30.255Z,94952.53
2023-04-04T04:46:33.287Z,94967.84
2023-04-04T04:51:36.967Z,94957.38
2023-04-04T04:56:39.342Z,94959.06
2023-04-04T05:01:46.386Z,94979.06
2023-04-04T05:06:50.427Z,94977.06
2023-04-04T05:11:52.876Z,94987.50
2023-04-04T05:16:59.380Z,94962.06
2023-04-04T05:22:07.766Z,94967.47
2023-04-04T05:27:18.846Z,94972.44
2023-04-04T05:32:27.761Z,94982.94
2023-04-04T05:37:41.566Z,94995.66
2023-04-04T05:42:58.906Z,94931.00
2023-04-04T05:48:10.868Z,94964.00
2023-04-04T05:53:23.472Z,94958.72
2023-04-04T05:58:27.631Z,94964.44
2023-04-04T06:03:33.190Z,94946.06
2023-04-04T06:08:50.277Z,94954.78
2023-04-04T06:13:55.621Z,94972.66
2023-04-04T06:19:00.314Z,94994.16
2023-04-04T06:24:04.629Z,94981.13
2023-04-04T06:29:10.487Z,94953.50
2023-04-04T06:34:15.224Z,94983.41
2023-04-04T06:39:44.021Z,94971.41
2023-04-04T06:44:55.796Z,95004.97
2023-04-04T06:49:58.638Z,94968.25
2023-04-04T06:55:01.287Z,94979.03
2023-04-04T07:00:03.735Z,94979.72
2023-04-04T07:05:06.650Z,94954.53
2023-04-04T07:10:10.880Z,95003.22
2023-04-04T07:15:13.649Z,94998.88
2023-04-04T07:20:16.098Z,94969.28
2023-04-04T07:25:18.397Z,95003.38
2023-04-04T07:30:25.292Z,94976.41
2023-04-04T07:35:28.026Z,94996.63
2023-04-04T07:40:30.496Z,94992.22
2023-04-04T07:45:32.773Z,94953.09
2023-04-04T07:50:35.238Z,94962.63
2023-04-04T07:55:37.530Z,94990.16
2023-04-04T08:00:40.004Z,94992.09
2023-04-04T08:05:42.642Z,95002.72
2023-04-04T08:10:46.372Z,94974.44
2023-04-04T08:15:48.741Z,94986.34
2023-04-04T08:20:51.711Z,95005.38
2023-04-04T08:25:54.282Z,94987.81
2023-04-04T08:30:57.135Z,95005.84
2023-04-04T08:35:59.565Z,95018.69
2023-04-04T08:41:02.122Z,95017.13
2023-04-04T08:46:06.369Z,95021.06
2023-04-04T08:51:12.479Z,95034.91
2023-04-04T08:56:14.995Z,95013.50
2023-04-04T09:01:17.595Z,95020.13
2023-04-04T09:06:21.126Z,95022.97
2023-04-04T09:11:24.917Z,95001.47
2023-04-04T09:16:27.666Z,95019.31
2023-04-04T09:21:34.117Z,95044.88
2023-04-04T09:26:51.941Z,94992.63
2023-04-04T09:31:54.626Z,95046.88
2023-04-04T09:36:58.666Z,95007.28
2023-04-04T09:42:02.120Z,95032.09
2023-04-04T09:47:30.455Z,95056.44
2023-04-04T09:52:37.199Z,95055.69
2023-04-04T09:57:42.140Z,95037.34
2023-04-04T10:02:49.099Z,95044.00
2023-04-04T10:07:51.752Z,95051.94
2023-04-04T10:12:54.639Z,95027.28
2023-04-04T10:17:57.755Z,95069.53
2023-04-04T10:23:00.898Z,95095.09
2023-04-04T10:28:03.340Z,95083.72
2023-04-04T10:33:15.763Z,95079.34
2023-04-04T10:38:28.999Z,95096.69
2023-04-04T10:43:35.203Z,95081.44
2023-04-04T10:48:38.287Z,95107.66
2023-04-04T10:53:42.766Z,95074.69
2023-04-04T10:58:45.758Z,95085.97
2023-04-04T11:04:38.695Z,95047.78
2023-04-04T11:09:50.476Z,95089.41
2023-04-04T11:15:10.170Z,95102.88
2023-04-04T11:20:17.469Z,95079.19
2023-04-04T11:25:27.533Z,95097.31
2023-04-04T11:30:30.009Z,95065.47
2023-04-04T11:35:32.762Z,95056.94
2023-04-04T11:40:37.471Z,95079.06
2023-04-04T11:45:46.784Z,95076.28
2023-04-04T11:50:52.242Z,95112.25
2023-04-04T11:55:56.821Z,95079.50
2023-04-04T12:00:59.199Z,95128.56
2023-04-04T12:06:02.389Z,95109.13
2023-04-04T12:11:07.446Z,95119.56
2023-04-04T12:16:09.863Z,95112.06
2023-04-04T12:21:12.396Z,95135.47
2023-04-04T12:26:16.402Z,95131.06
2023-04-04T12:31:19.043Z,95151.38
2023-04-04T12:36:21.581Z,95182.75
2023-04-04T12:41:24.439Z,95165.72
2023-04-04T12:46:28.338Z,95155.56
2023-04-04T12:51:33.330Z,95179.63
2023-04-04T12:56:39.295Z,95201.72
2023-04-04T13:01:41.882Z,95145.91
2023-04-04T13:06:50.290Z,95192.91
2023-04-04T13:12:04.702Z,95222.72
2023-04-04T13:17:08.880Z,95191.13
2023-04-04T13:22:11.830Z,95230.28
2023-04-04T13:27:14.248Z,95224.97
2023-04-04T13:32:17.269Z,95209.03
2023-04-04T13:37:20.738Z,95250.06
2023-04-04T13:42:27.237Z,95254.91
2023-04-04T13:47:29.623Z,95238.69
2023-04-04T13:52:32.079Z,95261.03
2023-04-04T13:57:34.428Z,95249.72
2023-04-04T14:02:37.267Z,95224.19
2023-04-04T14:07:39.639Z,95250.06
2023-04-04T14:12:42.179Z,95281.81
2023-04-04T14:17:44.440Z,95281.41
2023-04-04T14:22:47.152Z,95272.00
2023-04-04T14:27:49.805Z,95248.19
2023-04-04T14:32:52.301Z,95251.38
2023-04-04T14:37:55.297Z,95251.38
2023-04-04T14:42:58.313Z,95266.38
2023-04-04T14:48:00.916Z,95295.50
2023-04-04T14:53:03.240Z,95281.91
2023-04-04T14:58:05.462Z,95290.66
2023-04-04T15:03:11.629Z,95318.72
2023-04-04T15:08:13.855Z,95295.81
2023-04-04T15:13:16.006Z,95320.25
2023-04-04T15:18:18.395Z,95327.13
2023-04-04T15:23:20.969Z,95344.78
2023-04-04T15:28:23.276Z,95348.16
2023-04-04T15:33:25.780Z,95347.75
2023-04-04T15:38:28.275Z,95347.25
2023-04-04T15:43:32.393Z,95379.13
2023-04-04T15:48:34.821Z,95357.25
2023-04-04T15:53:37.136Z,95344.00
2023-04-04T15:58:39.550Z,95357.34
2023-04-04T16:03:43.383Z,95375.44
2023-04-04T16:08:46.060Z,95396.84
2023-04-04T16:13:48.871Z,95411.94
2023-04-04T16:18:51.217Z,95405.31
2023-04-04T16:23:53.568Z,95391.03
2023-04-04T16:28:58.964Z,95379.72
2023-04-04T16:34:01.352Z,95401.31
2023-04-04T16:39:03.625Z,95413.75
2023-04-04T16:44:05.808Z,95405.97
2023-04-04T16:49:08.759Z,95459.50
2023-04-04T16:54:11.647Z,95461.06
2023-04-04T16:59:16.071Z,95441.81
2023-04-04T17:04:19.558Z,95444.03
2023-04-04T17:09:21.997Z,95454.63
2023-04-04T17:14:26.238Z,95477.78
2023-04-04T17:19:32.117Z,95461.97
2023-04-04T17:24:34.600Z,95492.13
2023-04-04T17:29:37.584Z,95466.06
2023-04-04T17:34:40.093Z,95492.09
2023-04-04T17:39:45.460Z,95499.91
2023-04-04T17:44:48.048Z,95516.81
2023-04-04T17:49:51.669Z,95481.81
2023-04-04T17:54:54.568Z,95509.72
2023-04-04T17:59:57.001Z,95518.97
2023-04-04T18:04:59.606Z,95517.56
2023-04-04T18:10:01.903Z,95522.75
2023-04-04T18:15:04.799Z,95535.13
2023-04-04T18:20:08.729Z,95531.66
2023-04-04T18:25:11.209Z,95552.16
2023-04-04T18:30:13.798Z,95564.69
2023-04-04T18:35:16.667Z,95540.50
2023-04-04T18:40:19.216Z,95558.25
2023-04-04T18:45:29.955Z,95556.50
2023-04-04T18:50:36.574Z,95588.09
2023-04-04T18:55:39.093Z,95563.00
2023-04-04T19:00:42.170Z,95593.91
2023-04-04T19:05:51.059Z,95571.66
2023-04-04T19:10:54.327Z,95601.63
2023-04-04T19:15:56.750Z,95597.47
2023-04-04T19:20:59.246Z,95568.22
2023-04-04T19:26:02.888Z,95610.13
2023-04-04T19:31:09.276Z,95627.16
2023-04-04T19:36:12.015Z,95583.66
2023-04-04T19:41:17.252Z,95632.63
2023-04-04T19:46:28.357Z,95615.59
2023-04-04T19:51:38.017Z,95615.38
2023-04-04T19:56:40.706Z,95602.03
2023-04-04T20:01:53.767Z,95631.84
2023-04-04T20:06:56.375Z,95625.13
2023-04-04T20:11:58.791Z,95635.63
2023-04-04T20:17:01.385Z,95638.13
2023-04-04T20:22:04.454Z,95635.03
2023-04-04T20:27:07.114Z,95633.78
2023-04-04T20:32:09.773Z,95652.88
2023-04-04T20:37:29.762Z,95654.34
2023-04-04T20:42:40.238Z,95630.31
2023-04-04T20:47:52.395Z,95675.84
2023-04-04T20:53:03.841Z,95638.28
2023-04-04T20:58:21.084Z,95674.94
2023-04-04T21:03:26.423Z,95696.13
2023-04-04T21:08:34.896Z,95693.13
2023-04-04T21:13:40.139Z,95698.25
2023-04-04T21:18:43.878Z,95706.97
2023-04-04T21:23:48.943Z,95691.53
2023-04-04T21:28:51.295Z,95686.38
2023-04-04T21:33:56.372Z,95688.91
2023-04-04T21:39:06.569Z,95664.66
2023-04-04T21:44:10.612Z,95702.31
2023-04-04T21:49:13.197Z,95662.72
2023-04-04T21:54:15.455Z,95676.50
2023-04-04T21:59:17.783Z,95703.63
2023-04-04T22:04:20.150Z,95671.88
2023-04-04T22:09:23.002Z,95717.19
2023-04-04T22:14:25.136Z,95732.97
2023-04-04T22:19:27.561Z,95684.56
2023-04-04T22:24:29.945Z,95720.25
2023-04-04T22:29:32.189Z,95720.75
2023-04-04T22:34:35.078Z,95711.69
2023-04-04T22:39:38.154Z,95709.72
2023-04-04T22:44:40.489Z,95721.53
2023-04-04T22:49:48.574Z,95695.28
2023-04-04T22:54:50.935Z,95695.97
2023-04-04T22:59:53.282Z,95681.47
2023-04-04T23:04:55.923Z,95694.81
2023-04-04T23:09:58.141Z,95695.53
2023-04-04T23:15:04.360Z,95728.53
2023-04-04T23:20:10.413Z,95729.19
2023-04-04T23:25:12.831Z,95718.28
2023-04-04T23:30:15.614Z,95712.38
2023-04-04T23:35:17.952Z,95694.56
2023-04-04T23:40:20.256Z,95716.00
2023-04-04T23:50:42.788Z,95716.00
2023-04-04T23:55:45.168Z,95679.34
